sensor_id;sensor_type;location;lat;lon;timestamp;noise_LAeq;noise_LA_min;noise_LA_max;noise_LA01;noise_LA95
66458;Laerm;56835;52.198;4.826;2023-03-30T00:00:02;52.55;50.83;53.96;;
66458;Laerm;56835;52.198;4.826;2023-03-30T00:00:24;52.46;50.99;54.02;;
66458;Laerm;56835;52.198;4.826;2023-03-30T00:00:34;52.49;51.14;53.68;;
66458;Laerm;56835;52.198;4.826;2023-03-30T00:00:45;52.42;51.05;53.66;;
66458;Laerm;56835;52.198;4.826;2023-03-30T00:00:55;52.40;50.96;53.70;;
66458;Laerm;56835;52.198;4.826;2023-03-30T00:01:06;52.45;50.67;53.85;;
66458;Laerm;56835;52.198;4.826;2023-03-30T00:01:20;52.40;50.96;54.10;;
66458;Laerm;56835;52.198;4.826;2023-03-30T00:01:31;52.46;50.98;53.65;;
66458;Laerm;56835;52.198;4.826;2023-03-30T00:01:41;52.45;50.92;54.14;;
66458;Laerm;56835;52.198;4.826;2023-03-30T00:01:51;52.39;51.06;53.91;;
66458;Laerm;56835;52.198;4.826;2023-03-30T00:02:03;52.42;51.05;54.19;;
66458;Laerm;56835;52.198;4.826;2023-03-30T00:02:14;52.39;50.63;53.87;;
66458;Laerm;56835;52.198;4.826;2023-03-30T00:02:27;52.41;50.85;53.74;;
66458;Laerm;56835;52.198;4.826;2023-03-30T00:02:48;52.41;50.79;53.72;;
66458;Laerm;56835;52.198;4.826;2023-03-30T00:02:59;52.49;51.07;54.19;;
66458;Laerm;56835;52.198;4.826;2023-03-30T00:03:11;52.40;50.99;53.67;;
66458;Laerm;56835;52.198;4.826;2023-03-30T00:03:22;52.46;50.85;53.82;;
66458;Laerm;56835;52.198;4.826;2023-03-30T00:03:32;52.50;51.18;54.32;;
66458;Laerm;56835;52.198;4.826;2023-03-30T00:03:43;52.43;50.91;53.76;;
66458;Laerm;56835;52.198;4.826;2023-03-30T00:03:54;52.41;50.84;53.84;;
66458;Laerm;56835;52.198;4.826;2023-03-30T00:04:04;52.41;50.99;53.77;;
66458;Laerm;56835;52.198;4.826;2023-03-30T00:04:15;52.44;50.58;53.81;;
66458;Laerm;56835;52.198;4.826;2023-03-30T00:04:28;52.44;50.72;53.80;;
66458;Laerm;56835;52.198;4.826;2023-03-30T00:04:38;52.40;51.07;54.02;;
66458;Laerm;56835;52.198;4.826;2023-03-30T00:04:51;52.39;50.48;53.65;;
66458;Laerm;56835;52.198;4.826;2023-03-30T00:05:02;52.40;50.88;53.55;;
66458;Laerm;56835;52.198;4.826;2023-03-30T00:05:14;52.38;50.58;53.43;;
66458;Laerm;56835;52.198;4.826;2023-03-30T00:05:25;52.37;50.91;53.56;;
66458;Laerm;56835;52.198;4.826;2023-03-30T00:05:35;52.39;50.30;53.67;;
66458;Laerm;56835;52.198;4.826;2023-03-30T00:05:47;52.42;51.15;53.76;;
66458;Laerm;56835;52.198;4.826;2023-03-30T00:06:02;52.40;50.55;53.63;;
66458;Laerm;56835;52.198;4.826;2023-03-30T00:06:13;52.33;50.56;53.80;;
66458;Laerm;56835;52.198;4.826;2023-03-30T00:06:29;52.35;51.00;53.73;;
66458;Laerm;56835;52.198;4.826;2023-03-30T00:06:40;52.33;50.98;53.46;;
66458;Laerm;56835;52.198;4.826;2023-03-30T00:06:51;52.31;50.84;53.68;;
66458;Laerm;56835;52.198;4.826;2023-03-30T00:07:02;52.37;50.89;53.67;;
66458;Laerm;56835;52.198;4.826;2023-03-30T00:07:14;52.33;50.85;53.68;;
66458;Laerm;56835;52.198;4.826;2023-03-30T00:07:24;52.26;50.56;53.69;;
66458;Laerm;56835;52.198;4.826;2023-03-30T00:07:34;52.31;50.80;53.73;;
66458;Laerm;56835;52.198;4.826;2023-03-30T00:07:47;52.30;50.89;53.89;;
66458;Laerm;56835;52.198;4.826;2023-03-30T00:07:57;52.25;50.75;53.63;;
66458;Laerm;56835;52.198;4.826;2023-03-30T00:08:07;52.26;51.00;53.69;;
66458;Laerm;56835;52.198;4.826;2023-03-30T00:08:18;52.23;50.60;53.78;;
66458;Laerm;56835;52.198;4.826;2023-03-30T00:08:28;52.28;50.75;53.85;;
66458;Laerm;56835;52.198;4.826;2023-03-30T00:08:38;52.29;50.38;53.83;;
66458;Laerm;56835;52.198;4.826;2023-03-30T00:08:53;52.25;50.96;53.60;;
66458;Laerm;56835;52.198;4.826;2023-03-30T00:09:06;52.27;50.20;53.69;;
66458;Laerm;56835;52.198;4.826;2023-03-30T00:09:16;52.22;50.91;53.56;;
66458;Laerm;56835;52.198;4.826;2023-03-30T00:09:26;52.23;51.07;53.56;;
66458;Laerm;56835;52.198;4.826;2023-03-30T00:09:40;52.27;50.74;53.82;;
66458;Laerm;56835;52.198;4.826;2023-03-30T00:09:55;52.23;50.73;53.71;;
66458;Laerm;56835;52.198;4.826;2023-03-30T00:10:06;52.20;50.77;53.63;;
66458;Laerm;56835;52.198;4.826;2023-03-30T00:10:16;52.20;50.84;53.56;;
66458;Laerm;56835;52.198;4.826;2023-03-30T00:10:27;52.25;50.61;54.24;;
66458;Laerm;56835;52.198;4.826;2023-03-30T00:10:38;52.21;50.64;54.05;;
66458;Laerm;56835;52.198;4.826;2023-03-30T00:10:48;52.19;50.90;53.33;;
66458;Laerm;56835;52.198;4.826;2023-03-30T00:11:00;52.20;50.80;53.33;;
66458;Laerm;56835;52.198;4.826;2023-03-30T00:11:11;52.19;50.32;53.55;;
66458;Laerm;56835;52.198;4.826;2023-03-30T00:11:22;52.18;50.45;53.38;;
66458;Laerm;56835;52.198;4.826;2023-03-30T00:11:34;52.15;50.91;53.41;;
66458;Laerm;56835;52.198;4.826;2023-03-30T00:11:44;52.16;50.62;53.47;;
66458;Laerm;56835;52.198;4.826;2023-03-30T00:11:54;52.20;50.84;53.43;;
66458;Laerm;56835;52.198;4.826;2023-03-30T00:12:05;52.17;50.67;53.39;;
66458;Laerm;56835;52.198;4.826;2023-03-30T00:12:15;52.19;50.96;53.51;;
66458;Laerm;56835;52.198;4.826;2023-03-30T00:12:29;52.21;50.15;53.99;;
66458;Laerm;56835;52.198;4.826;2023-03-30T00:12:40;52.14;50.80;53.36;;
66458;Laerm;56835;52.198;4.826;2023-03-30T00:12:52;52.17;50.77;53.36;;
66458;Laerm;56835;52.198;4.826;2023-03-30T00:13:02;52.14;50.95;53.55;;
66458;Laerm;56835;52.198;4.826;2023-03-30T00:13:13;52.15;50.17;53.38;;
66458;Laerm;56835;52.198;4.826;2023-03-30T00:13:23;52.14;50.50;53.60;;
66458;Laerm;56835;52.198;4.826;2023-03-30T00:13:34;52.11;50.63;53.29;;
66458;Laerm;56835;52.198;4.826;2023-03-30T00:13:44;52.07;50.54;53.12;;
66458;Laerm;56835;52.198;4.826;2023-03-30T00:13:55;52.12;50.27;53.39;;
66458;Laerm;56835;52.198;4.826;2023-03-30T00:14:05;52.12;49.94;53.31;;
66458;Laerm;56835;52.198;4.826;2023-03-30T00:14:15;52.10;50.82;53.24;;
66458;Laerm;56835;52.198;4.826;2023-03-30T00:14:27;52.12;50.69;53.41;;
66458;Laerm;56835;52.198;4.826;2023-03-30T00:14:40;52.12;50.61;53.50;;
66458;Laerm;56835;52.198;4.826;2023-03-30T00:14:51;52.08;50.68;53.40;;
66458;Laerm;56835;52.198;4.826;2023-03-30T00:15:02;52.14;50.65;53.57;;
66458;Laerm;56835;52.198;4.826;2023-03-30T00:15:14;52.12;50.51;53.62;;
66458;Laerm;56835;52.198;4.826;2023-03-30T00:15:25;52.09;50.66;53.22;;
66458;Laerm;56835;52.198;4.826;2023-03-30T00:15:35;52.08;50.17;53.37;;
66458;Laerm;56835;52.198;4.826;2023-03-30T00:15:46;52.08;50.65;53.36;;
66458;Laerm;56835;52.198;4.826;2023-03-30T00:15:56;52.04;50.31;53.17;;
66458;Laerm;56835;52.198;4.826;2023-03-30T00:16:08;52.06;50.98;53.09;;
66458;Laerm;56835;52.198;4.826;2023-03-30T00:16:19;52.15;50.95;53.32;;
66458;Laerm;56835;52.198;4.826;2023-03-30T00:16:29;52.03;50.74;53.61;;
66458;Laerm;56835;52.198;4.826;2023-03-30T00:16:40;52.08;50.87;53.52;;
66458;Laerm;56835;52.198;4.826;2023-03-30T00:16:50;52.05;50.46;53.57;;
66458;Laerm;56835;52.198;4.826;2023-03-30T00:17:05;52.00;50.92;53.23;;
66458;Laerm;56835;52.198;4.826;2023-03-30T00:17:16;52.08;50.64;53.54;;
66458;Laerm;56835;52.198;4.826;2023-03-30T00:17:26;52.04;50.65;53.91;;
66458;Laerm;56835;52.198;4.826;2023-03-30T00:17:37;52.03;50.64;53.27;;
66458;Laerm;56835;52.198;4.826;2023-03-30T00:17:47;52.02;49.98;53.29;;
66458;Laerm;56835;52.198;4.826;2023-03-30T00:17:57;52.07;50.58;53.22;;
66458;Laerm;56835;52.198;4.826;2023-03-30T00:18:08;52.08;50.65;53.38;;
66458;Laerm;56835;52.198;4.826;2023-03-30T00:18:18;52.06;50.78;53.24;;
66458;Laerm;56835;52.198;4.826;2023-03-30T00:18:29;52.05;50.30;53.51;;
66458;Laerm;56835;52.198;4.826;2023-03-30T00:18:39;52.00;50.63;53.58;;
66458;Laerm;56835;52.198;4.826;2023-03-30T00:18:49;52.05;50.58;53.32;;
66458;Laerm;56835;52.198;4.826;2023-03-30T00:18:59;52.02;50.83;53.21;;
66458;Laerm;56835;52.198;4.826;2023-03-30T00:19:10;51.99;50.41;53.28;;
66458;Laerm;56835;52.198;4.826;2023-03-30T00:19:20;52.02;50.80;53.40;;
66458;Laerm;56835;52.198;4.826;2023-03-30T00:19:30;52.02;50.42;53.37;;
66458;Laerm;56835;52.198;4.826;2023-03-30T00:19:40;52.00;50.55;53.31;;
66458;Laerm;56835;52.198;4.826;2023-03-30T00:19:51;52.07;50.83;53.72;;
66458;Laerm;56835;52.198;4.826;2023-03-30T00:20:01;52.01;50.63;53.42;;
66458;Laerm;56835;52.198;4.826;2023-03-30T00:20:14;52.02;50.82;53.32;;
66458;Laerm;56835;52.198;4.826;2023-03-30T00:20:26;52.05;50.82;53.45;;
66458;Laerm;56835;52.198;4.826;2023-03-30T00:20:36;52.02;50.29;53.59;;
66458;Laerm;56835;52.198;4.826;2023-03-30T00:20:52;52.01;50.39;53.31;;
66458;Laerm;56835;52.198;4.826;2023-03-30T00:21:02;52.01;50.53;53.36;;
66458;Laerm;56835;52.198;4.826;2023-03-30T00:21:12;52.01;50.58;53.29;;
66458;Laerm;56835;52.198;4.826;2023-03-30T00:21:26;52.01;50.48;53.43;;
66458;Laerm;56835;52.198;4.826;2023-03-30T00:21:37;51.99;50.82;53.48;;
66458;Laerm;56835;52.198;4.826;2023-03-30T00:21:47;52.00;50.63;53.49;;
66458;Laerm;56835;52.198;4.826;2023-03-30T00:21:58;52.00;50.86;53.21;;
66458;Laerm;56835;52.198;4.826;2023-03-30T00:22:08;52.06;50.70;53.26;;
66458;Laerm;56835;52.198;4.826;2023-03-30T00:22:19;52.02;50.30;53.30;;
66458;Laerm;56835;52.198;4.826;2023-03-30T00:22:29;52.00;50.80;53.31;;
66458;Laerm;56835;52.198;4.826;2023-03-30T00:22:40;51.98;50.58;53.29;;
66458;Laerm;56835;52.198;4.826;2023-03-30T00:22:50;52.02;50.62;53.37;;
66458;Laerm;56835;52.198;4.826;2023-03-30T00:23:01;51.99;50.63;53.35;;
66458;Laerm;56835;52.198;4.826;2023-03-30T00:23:11;51.96;50.24;53.07;;
66458;Laerm;56835;52.198;4.826;2023-03-30T00:23:21;51.93;50.68;53.35;;
66458;Laerm;56835;52.198;4.826;2023-03-30T00:23:32;51.97;50.31;53.27;;
66458;Laerm;56835;52.198;4.826;2023-03-30T00:23:42;51.95;50.56;53.33;;
66458;Laerm;56835;52.198;4.826;2023-03-30T00:23:55;51.94;50.54;53.20;;
66458;Laerm;56835;52.198;4.826;2023-03-30T00:24:05;51.95;50.56;53.27;;
66458;Laerm;56835;52.198;4.826;2023-03-30T00:24:15;51.98;50.43;53.34;;
66458;Laerm;56835;52.198;4.826;2023-03-30T00:24:25;51.99;50.67;53.38;;
66458;Laerm;56835;52.198;4.826;2023-03-30T00:24:36;51.96;50.46;53.17;;
66458;Laerm;56835;52.198;4.826;2023-03-30T00:24:46;51.95;50.22;53.25;;
66458;Laerm;56835;52.198;4.826;2023-03-30T00:24:56;51.94;50.70;53.07;;
66458;Laerm;56835;52.198;4.826;2023-03-30T00:25:07;51.95;50.17;53.32;;
66458;Laerm;56835;52.198;4.826;2023-03-30T00:25:18;51.97;50.56;53.11;;
66458;Laerm;56835;52.198;4.826;2023-03-30T00:25:29;51.85;50.15;53.22;;
66458;Laerm;56835;52.198;4.826;2023-03-30T00:25:40;51.93;50.62;53.83;;
66458;Laerm;56835;52.198;4.826;2023-03-30T00:25:50;51.96;50.79;53.59;;
66458;Laerm;56835;52.198;4.826;2023-03-30T00:26:01;51.96;49.79;53.42;;
66458;Laerm;56835;52.198;4.826;2023-03-30T00:26:12;51.96;50.54;53.06;;
66458;Laerm;56835;52.198;4.826;2023-03-30T00:26:23;51.95;50.35;53.41;;
66458;Laerm;56835;52.198;4.826;2023-03-30T00:26:33;51.97;50.46;53.21;;
66458;Laerm;56835;52.198;4.826;2023-03-30T00:26:43;51.97;50.67;53.32;;
66458;Laerm;56835;52.198;4.826;2023-03-30T00:26:53;52.02;50.79;53.43;;
66458;Laerm;56835;52.198;4.826;2023-03-30T00:27:04;51.98;50.81;53.54;;
66458;Laerm;56835;52.198;4.826;2023-03-30T00:27:14;51.95;50.55;53.29;;
66458;Laerm;56835;52.198;4.826;2023-03-30T00:27:24;51.97;50.61;53.30;;
66458;Laerm;56835;52.198;4.826;2023-03-30T00:27:35;51.98;50.72;53.26;;
66458;Laerm;56835;52.198;4.826;2023-03-30T00:27:46;51.93;50.21;53.39;;
66458;Laerm;56835;52.198;4.826;2023-03-30T00:27:56;51.89;50.46;53.11;;
66458;Laerm;56835;52.198;4.826;2023-03-30T00:28:06;51.99;50.31;53.09;;
66458;Laerm;56835;52.198;4.826;2023-03-30T00:28:16;52.04;50.87;53.40;;
66458;Laerm;56835;52.198;4.826;2023-03-30T00:28:27;51.99;50.68;53.36;;
66458;Laerm;56835;52.198;4.826;2023-03-30T00:28:39;51.97;50.55;53.36;;
66458;Laerm;56835;52.198;4.826;2023-03-30T00:28:50;52.01;50.30;53.48;;
66458;Laerm;56835;52.198;4.826;2023-03-30T00:29:00;52.03;50.46;53.26;;
66458;Laerm;56835;52.198;4.826;2023-03-30T00:29:10;52.01;50.32;53.18;;
66458;Laerm;56835;52.198;4.826;2023-03-30T00:29:21;51.96;50.48;53.25;;
66458;Laerm;56835;52.198;4.826;2023-03-30T00:29:31;52.04;50.40;53.31;;
66458;Laerm;56835;52.198;4.826;2023-03-30T00:29:41;51.98;50.63;53.12;;
66458;Laerm;56835;52.198;4.826;2023-03-30T00:29:52;51.98;50.16;53.26;;
66458;Laerm;56835;52.198;4.826;2023-03-30T00:30:03;52.00;50.63;53.23;;
66458;Laerm;56835;52.198;4.826;2023-03-30T00:30:14;51.98;50.36;53.34;;
66458;Laerm;56835;52.198;4.826;2023-03-30T00:30:24;51.93;50.32;53.25;;
66458;Laerm;56835;52.198;4.826;2023-03-30T00:30:35;51.98;50.64;53.44;;
66458;Laerm;56835;52.198;4.826;2023-03-30T00:30:46;52.04;50.32;53.20;;
66458;Laerm;56835;52.198;4.826;2023-03-30T00:30:57;51.96;50.27;53.25;;
66458;Laerm;56835;52.198;4.826;2023-03-30T00:31:07;51.98;50.75;53.46;;
66458;Laerm;56835;52.198;4.826;2023-03-30T00:31:19;51.98;50.63;53.30;;
66458;Laerm;56835;52.198;4.826;2023-03-30T00:31:30;51.99;50.56;53.40;;
66458;Laerm;56835;52.198;4.826;2023-03-30T00:31:40;52.01;50.77;53.27;;
66458;Laerm;56835;52.198;4.826;2023-03-30T00:31:50;51.94;50.43;53.24;;
66458;Laerm;56835;52.198;4.826;2023-03-30T00:32:01;52.04;50.44;53.45;;
66458;Laerm;56835;52.198;4.826;2023-03-30T00:32:11;51.96;50.69;53.25;;
66458;Laerm;56835;52.198;4.826;2023-03-30T00:32:21;52.01;50.72;53.21;;
66458;Laerm;56835;52.198;4.826;2023-03-30T00:32:31;51.91;50.47;53.37;;
66458;Laerm;56835;52.198;4.826;2023-03-30T00:32:43;51.93;50.23;53.05;;
66458;Laerm;56835;52.198;4.826;2023-03-30T00:32:53;51.96;50.37;53.11;;
66458;Laerm;56835;52.198;4.826;2023-03-30T00:33:04;52.00;50.63;53.46;;
66458;Laerm;56835;52.198;4.826;2023-03-30T00:33:14;52.02;50.54;53.19;;
66458;Laerm;56835;52.198;4.826;2023-03-30T00:33:25;51.97;50.59;53.39;;
66458;Laerm;56835;52.198;4.826;2023-03-30T00:33:35;51.96;50.22;53.21;;
66458;Laerm;56835;52.198;4.826;2023-03-30T00:33:46;51.98;50.73;53.23;;
66458;Laerm;56835;52.198;4.826;2023-03-30T00:33:56;51.97;50.41;53.40;;
66458;Laerm;56835;52.198;4.826;2023-03-30T00:34:06;51.87;50.37;53.23;;
66458;Laerm;56835;52.198;4.826;2023-03-30T00:34:17;51.98;50.70;53.34;;
66458;Laerm;56835;52.198;4.826;2023-03-30T00:34:27;51.92;50.12;53.32;;
66458;Laerm;56835;52.198;4.826;2023-03-30T00:34:38;51.95;50.45;53.28;;
66458;Laerm;56835;52.198;4.826;2023-03-30T00:34:48;51.99;50.33;53.27;;
66458;Laerm;56835;52.198;4.826;2023-03-30T00:34:58;51.98;50.62;53.42;;
66458;Laerm;56835;52.198;4.826;2023-03-30T00:35:09;52.01;50.61;53.91;;
66458;Laerm;56835;52.198;4.826;2023-03-30T00:35:19;51.99;50.54;53.19;;
66458;Laerm;56835;52.198;4.826;2023-03-30T00:35:30;51.96;50.26;53.33;;
66458;Laerm;56835;52.198;4.826;2023-03-30T00:35:40;52.00;50.22;53.43;;
66458;Laerm;56835;52.198;4.826;2023-03-30T00:35:57;51.95;50.29;53.10;;
66458;Laerm;56835;52.198;4.826;2023-03-30T00:36:07;52.00;50.56;53.31;;
66458;Laerm;56835;52.198;4.826;2023-03-30T00:36:18;52.03;50.84;53.37;;
66458;Laerm;56835;52.198;4.826;2023-03-30T00:36:28;52.06;50.81;53.40;;
66458;Laerm;56835;52.198;4.826;2023-03-30T00:36:39;51.99;50.54;53.34;;
66458;Laerm;56835;52.198;4.826;2023-03-30T00:36:49;51.97;50.17;53.27;;
66458;Laerm;56835;52.198;4.826;2023-03-30T00:37:02;52.00;50.67;53.48;;
66458;Laerm;56835;52.198;4.826;2023-03-30T00:37:13;52.01;50.44;53.27;;
66458;Laerm;56835;52.198;4.826;2023-03-30T00:37:24;51.97;50.63;53.41;;
66458;Laerm;56835;52.198;4.826;2023-03-30T00:37:35;51.99;50.17;53.47;;
66458;Laerm;56835;52.198;4.826;2023-03-30T00:37:46;52.02;50.71;53.17;;
66458;Laerm;56835;52.198;4.826;2023-03-30T00:37:58;52.07;50.12;53.28;;
66458;Laerm;56835;52.198;4.826;2023-03-30T00:38:12;51.99;50.60;53.32;;
66458;Laerm;56835;52.198;4.826;2023-03-30T00:38:22;52.00;50.64;53.10;;
66458;Laerm;56835;52.198;4.826;2023-03-30T00:38:33;52.02;50.41;53.24;;
66458;Laerm;56835;52.198;4.826;2023-03-30T00:38:43;52.02;50.55;53.50;;
66458;Laerm;56835;52.198;4.826;2023-03-30T00:38:54;52.00;49.98;53.60;;
66458;Laerm;56835;52.198;4.826;2023-03-30T00:39:05;52.02;50.35;53.10;;
66458;Laerm;56835;52.198;4.826;2023-03-30T00:39:15;51.97;50.53;53.20;;
66458;Laerm;56835;52.198;4.826;2023-03-30T00:39:27;52.04;50.43;53.21;;
66458;Laerm;56835;52.198;4.826;2023-03-30T00:39:38;52.01;50.78;53.31;;
66458;Laerm;56835;52.198;4.826;2023-03-30T00:39:48;51.97;50.51;53.20;;
66458;Laerm;56835;52.198;4.826;2023-03-30T00:39:58;51.97;50.55;53.56;;
66458;Laerm;56835;52.198;4.826;2023-03-30T00:40:12;51.99;50.24;53.33;;
66458;Laerm;56835;52.198;4.826;2023-03-30T00:40:23;51.99;50.61;53.45;;
66458;Laerm;56835;52.198;4.826;2023-03-30T00:40:33;52.02;50.27;53.51;;
66458;Laerm;56835;52.198;4.826;2023-03-30T00:40:49;52.04;50.61;53.11;;
66458;Laerm;56835;52.198;4.826;2023-03-30T00:41:00;52.06;50.67;53.52;;
66458;Laerm;56835;52.198;4.826;2023-03-30T00:41:10;52.04;50.28;53.19;;
66458;Laerm;56835;52.198;4.826;2023-03-30T00:41:21;52.04;50.56;53.18;;
66458;Laerm;56835;52.198;4.826;2023-03-30T00:41:32;51.96;50.03;53.12;;
66458;Laerm;56835;52.198;4.826;2023-03-30T00:41:42;52.03;50.73;53.26;;
66458;Laerm;56835;52.198;4.826;2023-03-30T00:41:52;51.98;50.64;53.34;;
66458;Laerm;56835;52.198;4.826;2023-03-30T00:42:03;52.01;50.43;53.44;;
66458;Laerm;56835;52.198;4.826;2023-03-30T00:42:14;52.04;50.24;53.24;;
66458;Laerm;56835;52.198;4.826;2023-03-30T00:42:25;52.07;50.48;53.21;;
66458;Laerm;56835;52.198;4.826;2023-03-30T00:42:36;52.00;50.83;53.30;;
66458;Laerm;56835;52.198;4.826;2023-03-30T00:42:47;52.06;50.73;53.20;;
66458;Laerm;56835;52.198;4.826;2023-03-30T00:43:04;52.12;50.64;53.46;;
66458;Laerm;56835;52.198;4.826;2023-03-30T00:43:15;51.99;50.52;53.36;;
66458;Laerm;56835;52.198;4.826;2023-03-30T00:43:25;51.99;50.73;53.33;;
66458;Laerm;56835;52.198;4.826;2023-03-30T00:43:55;52.10;50.70;53.41;;
66458;Laerm;56835;52.198;4.826;2023-03-30T00:44:06;52.03;50.62;53.40;;
66458;Laerm;56835;52.198;4.826;2023-03-30T00:45:24;52.08;50.62;53.32;;
66458;Laerm;56835;52.198;4.826;2023-03-30T00:45:36;52.10;50.62;53.71;;
66458;Laerm;56835;52.198;4.826;2023-03-30T00:45:46;52.08;50.75;53.65;;
66458;Laerm;56835;52.198;4.826;2023-03-30T00:45:56;52.08;50.68;53.17;;
66458;Laerm;56835;52.198;4.826;2023-03-30T00:46:07;51.96;50.64;53.16;;
66458;Laerm;56835;52.198;4.826;2023-03-30T00:46:17;52.01;50.42;53.21;;
66458;Laerm;56835;52.198;4.826;2023-03-30T00:46:28;52.09;50.57;53.66;;
66458;Laerm;56835;52.198;4.826;2023-03-30T00:46:39;52.04;50.80;53.34;;
66458;Laerm;56835;52.198;4.826;2023-03-30T00:46:50;52.13;50.05;53.31;;
66458;Laerm;56835;52.198;4.826;2023-03-30T00:47:00;52.03;50.64;53.38;;
66458;Laerm;56835;52.198;4.826;2023-03-30T00:47:10;52.11;50.82;53.33;;
66458;Laerm;56835;52.198;4.826;2023-03-30T00:47:21;52.03;50.59;53.13;;
66458;Laerm;56835;52.198;4.826;2023-03-30T00:47:32;52.05;50.85;53.33;;
66458;Laerm;56835;52.198;4.826;2023-03-30T00:48:16;52.06;50.65;53.15;;
66458;Laerm;56835;52.198;4.826;2023-03-30T00:48:28;52.08;50.50;53.37;;
66458;Laerm;56835;52.198;4.826;2023-03-30T00:48:40;51.99;50.34;53.27;;
66458;Laerm;56835;52.198;4.826;2023-03-30T00:48:50;52.11;50.75;53.39;;
66458;Laerm;56835;52.198;4.826;2023-03-30T00:49:05;52.11;50.82;53.26;;
66458;Laerm;56835;52.198;4.826;2023-03-30T00:49:17;52.06;50.70;53.43;;
66458;Laerm;56835;52.198;4.826;2023-03-30T00:49:28;52.11;50.50;53.44;;
66458;Laerm;56835;52.198;4.826;2023-03-30T00:49:38;52.11;50.53;53.29;;
66458;Laerm;56835;52.198;4.826;2023-03-30T00:49:50;52.05;50.56;53.62;;
66458;Laerm;56835;52.198;4.826;2023-03-30T00:50:02;52.07;50.33;53.61;;
66458;Laerm;56835;52.198;4.826;2023-03-30T00:50:12;52.10;50.64;53.62;;
66458;Laerm;56835;52.198;4.826;2023-03-30T00:50:25;52.03;50.70;53.37;;
66458;Laerm;56835;52.198;4.826;2023-03-30T00:51:03;52.09;50.81;53.67;;
66458;Laerm;56835;52.198;4.826;2023-03-30T00:51:14;52.11;50.63;53.80;;
66458;Laerm;56835;52.198;4.826;2023-03-30T00:51:25;52.09;50.28;53.51;;
66458;Laerm;56835;52.198;4.826;2023-03-30T00:51:36;52.12;50.88;53.50;;
66458;Laerm;56835;52.198;4.826;2023-03-30T00:51:47;52.06;50.47;53.23;;
66458;Laerm;56835;52.198;4.826;2023-03-30T00:51:59;52.08;50.65;53.36;;
66458;Laerm;56835;52.198;4.826;2023-03-30T00:52:11;52.05;50.71;53.36;;
66458;Laerm;56835;52.198;4.826;2023-03-30T00:52:21;52.02;50.66;53.39;;
66458;Laerm;56835;52.198;4.826;2023-03-30T00:52:34;52.05;50.76;53.17;;
66458;Laerm;56835;52.198;4.826;2023-03-30T00:52:46;52.02;50.20;53.50;;
66458;Laerm;56835;52.198;4.826;2023-03-30T00:52:57;51.84;50.39;53.38;;
66458;Laerm;56835;52.198;4.826;2023-03-30T00:53:10;51.87;50.36;53.96;;
66458;Laerm;56835;52.198;4.826;2023-03-30T00:53:24;52.03;50.60;53.60;;
66458;Laerm;56835;52.198;4.826;2023-03-30T00:53:42;52.09;50.96;53.31;;
66458;Laerm;56835;52.198;4.826;2023-03-30T00:53:55;52.09;50.48;53.81;;
66458;Laerm;56835;52.198;4.826;2023-03-30T00:54:10;52.04;50.58;53.42;;
66458;Laerm;56835;52.198;4.826;2023-03-30T00:54:22;52.10;50.77;53.42;;
66458;Laerm;56835;52.198;4.826;2023-03-30T00:54:32;52.12;50.61;53.51;;
66458;Laerm;56835;52.198;4.826;2023-03-30T00:54:43;52.08;50.98;53.19;;
66458;Laerm;56835;52.198;4.826;2023-03-30T00:54:53;52.06;50.54;53.38;;
66458;Laerm;56835;52.198;4.826;2023-03-30T00:55:05;52.09;50.58;53.58;;
66458;Laerm;56835;52.198;4.826;2023-03-30T00:55:21;52.06;50.71;53.45;;
66458;Laerm;56835;52.198;4.826;2023-03-30T00:55:33;52.06;50.24;53.58;;
66458;Laerm;56835;52.198;4.826;2023-03-30T00:55:45;52.05;50.58;53.27;;
66458;Laerm;56835;52.198;4.826;2023-03-30T00:55:56;52.07;50.18;53.64;;
66458;Laerm;56835;52.198;4.826;2023-03-30T00:56:08;52.07;50.60;53.60;;
66458;Laerm;56835;52.198;4.826;2023-03-30T00:56:20;52.01;50.66;53.15;;
66458;Laerm;56835;52.198;4.826;2023-03-30T00:56:32;52.01;50.60;53.40;;
66458;Laerm;56835;52.198;4.826;2023-03-30T00:56:43;52.01;50.48;53.53;;
66458;Laerm;56835;52.198;4.826;2023-03-30T00:56:54;52.03;50.45;53.17;;
66458;Laerm;56835;52.198;4.826;2023-03-30T00:57:05;52.04;50.80;53.41;;
66458;Laerm;56835;52.198;4.826;2023-03-30T00:57:16;52.04;50.48;53.38;;
66458;Laerm;56835;52.198;4.826;2023-03-30T00:57:26;52.07;50.31;53.30;;
66458;Laerm;56835;52.198;4.826;2023-03-30T00:57:37;52.05;50.68;53.81;;
66458;Laerm;56835;52.198;4.826;2023-03-30T00:57:50;52.07;50.64;53.33;;
66458;Laerm;56835;52.198;4.826;2023-03-30T00:58:01;52.05;50.41;53.26;;
66458;Laerm;56835;52.198;4.826;2023-03-30T00:58:13;52.04;50.89;53.44;;
66458;Laerm;56835;52.198;4.826;2023-03-30T00:58:24;51.96;50.64;53.18;;
66458;Laerm;56835;52.198;4.826;2023-03-30T00:58:35;52.01;50.44;53.20;;
66458;Laerm;56835;52.198;4.826;2023-03-30T00:58:47;52.01;50.77;53.19;;
66458;Laerm;56835;52.198;4.826;2023-03-30T00:58:59;52.00;50.81;53.29;;
66458;Laerm;56835;52.198;4.826;2023-03-30T00:59:10;52.04;50.45;53.49;;
66458;Laerm;56835;52.198;4.826;2023-03-30T00:59:20;52.06;50.64;53.34;;
66458;Laerm;56835;52.198;4.826;2023-03-30T00:59:31;52.01;50.24;53.44;;
66458;Laerm;56835;52.198;4.826;2023-03-30T00:59:41;51.98;50.53;53.14;;
66458;Laerm;56835;52.198;4.826;2023-03-30T00:59:51;52.02;50.59;53.39;;
66458;Laerm;56835;52.198;4.826;2023-03-30T01:00:03;52.03;50.63;53.31;;
66458;Laerm;56835;52.198;4.826;2023-03-30T01:00:16;51.94;50.66;53.30;;
66458;Laerm;56835;52.198;4.826;2023-03-30T01:00:26;51.95;50.37;53.43;;
66458;Laerm;56835;52.198;4.826;2023-03-30T01:00:37;51.99;50.70;53.27;;
66458;Laerm;56835;52.198;4.826;2023-03-30T01:00:48;52.00;50.54;53.25;;
66458;Laerm;56835;52.198;4.826;2023-03-30T01:00:59;51.99;50.52;53.42;;
66458;Laerm;56835;52.198;4.826;2023-03-30T01:01:12;52.03;50.64;53.35;;
66458;Laerm;56835;52.198;4.826;2023-03-30T01:01:24;51.98;50.63;53.50;;
66458;Laerm;56835;52.198;4.826;2023-03-30T01:01:38;52.00;50.75;53.36;;
66458;Laerm;56835;52.198;4.826;2023-03-30T01:01:49;51.94;50.14;53.22;;
66458;Laerm;56835;52.198;4.826;2023-03-30T01:02:00;51.96;50.71;53.41;;
66458;Laerm;56835;52.198;4.826;2023-03-30T01:02:10;51.94;50.32;53.50;;
66458;Laerm;56835;52.198;4.826;2023-03-30T01:02:20;51.94;50.67;53.28;;
66458;Laerm;56835;52.198;4.826;2023-03-30T01:02:32;51.94;50.69;53.06;;
66458;Laerm;56835;52.198;4.826;2023-03-30T01:02:45;51.93;50.06;53.29;;
66458;Laerm;56835;52.198;4.826;2023-03-30T01:02:58;51.94;50.40;53.24;;
66458;Laerm;56835;52.198;4.826;2023-03-30T01:03:30;51.93;50.40;53.08;;
66458;Laerm;56835;52.198;4.826;2023-03-30T01:03:43;51.93;50.65;53.30;;
66458;Laerm;56835;52.198;4.826;2023-03-30T01:03:56;51.92;50.41;53.20;;
66458;Laerm;56835;52.198;4.826;2023-03-30T01:04:09;51.92;50.61;53.55;;
66458;Laerm;56835;52.198;4.826;2023-03-30T01:04:20;51.92;50.25;53.39;;
66458;Laerm;56835;52.198;4.826;2023-03-30T01:04:30;51.92;50.48;53.43;;
66458;Laerm;56835;52.198;4.826;2023-03-30T01:04:40;51.90;50.63;53.31;;
66458;Laerm;56835;52.198;4.826;2023-03-30T01:04:51;51.97;50.46;53.45;;
66458;Laerm;56835;52.198;4.826;2023-03-30T01:05:03;51.87;50.61;53.08;;
66458;Laerm;56835;52.198;4.826;2023-03-30T01:05:13;51.97;50.67;53.53;;
66458;Laerm;56835;52.198;4.826;2023-03-30T01:05:24;51.92;50.63;53.50;;